sensor_id;sensor_type;location;lat;lon;timestamp;P1;durP1;ratioP1;P2;durP2;ratioP2
41829;SDS011;38614;43.472;23.936;2024-02-21T00:01:45;9.00;;;2.83;;
41829;SDS011;38614;43.472;23.936;2024-02-21T00:04:32;5.65;;;2.85;;
41829;SDS011;38614;43.472;23.936;2024-02-21T00:07:20;4.43;;;2.42;;
41829;SDS011;38614;43.472;23.936;2024-02-21T00:10:08;3.70;;;1.90;;
41829;SDS011;38614;43.472;23.936;2024-02-21T00:12:56;2.67;;;2.00;;
41829;SDS011;38614;43.472;23.936;2024-02-21T00:15:44;6.28;;;2.70;;
41829;SDS011;38614;43.472;23.936;2024-02-21T00:18:32;5.15;;;1.83;;
41829;SDS011;38614;43.472;23.936;2024-02-21T00:21:20;5.28;;;3.30;;
41829;SDS011;38614;43.472;23.936;2024-02-21T00:24:07;4.40;;;2.25;;
41829;SDS011;38614;43.472;23.936;2024-02-21T00:26:57;2.97;;;2.03;;
41829;SDS011;38614;43.472;23.936;2024-02-21T00:29:45;6.18;;;2.33;;
41829;SDS011;38614;43.472;23.936;2024-02-21T00:32:32;4.43;;;2.08;;
41829;SDS011;38614;43.472;23.936;2024-02-21T00:35:21;5.60;;;2.85;;
41829;SDS011;38614;43.472;23.936;2024-02-21T00:38:09;3.90;;;2.55;;
41829;SDS011;38614;43.472;23.936;2024-02-21T00:40:57;5.38;;;3.38;;
41829;SDS011;38614;43.472;23.936;2024-02-21T00:43:45;7.88;;;3.22;;
41829;SDS011;38614;43.472;23.936;2024-02-21T00:46:33;5.70;;;2.63;;
41829;SDS011;38614;43.472;23.936;2024-02-21T00:49:21;3.92;;;2.45;;
41829;SDS011;38614;43.472;23.936;2024-02-21T00:52:08;3.40;;;2.33;;
41829;SDS011;38614;43.472;23.936;2024-02-21T00:54:56;5.70;;;2.90;;
41829;SDS011;38614;43.472;23.936;2024-02-21T00:57:44;4.85;;;2.92;;
41829;SDS011;38614;43.472;23.936;2024-02-21T01:00:32;8.07;;;3.20;;
41829;SDS011;38614;43.472;23.936;2024-02-21T01:03:19;3.95;;;2.63;;
41829;SDS011;38614;43.472;23.936;2024-02-21T01:06:08;4.97;;;2.45;;
41829;SDS011;38614;43.472;23.936;2024-02-21T01:08:55;6.25;;;2.80;;
41829;SDS011;38614;43.472;23.936;2024-02-21T01:11:43;5.78;;;3.92;;
41829;SDS011;38614;43.472;23.936;2024-02-21T01:14:30;5.88;;;2.50;;
41829;SDS011;38614;43.472;23.936;2024-02-21T01:17:19;3.83;;;2.63;;
41829;SDS011;38614;43.472;23.936;2024-02-21T01:20:06;5.93;;;2.95;;
41829;SDS011;38614;43.472;23.936;2024-02-21T01:22:54;4.85;;;2.90;;
41829;SDS011;38614;43.472;23.936;2024-02-21T01:25:42;4.28;;;2.60;;
41829;SDS011;38614;43.472;23.936;2024-02-21T01:28:30;6.40;;;3.00;;
41829;SDS011;38614;43.472;23.936;2024-02-21T01:31:18;4.63;;;2.65;;
41829;SDS011;38614;43.472;23.936;2024-02-21T01:34:06;7.72;;;2.10;;
41829;SDS011;38614;43.472;23.936;2024-02-21T01:36:54;4.60;;;2.58;;
41829;SDS011;38614;43.472;23.936;2024-02-21T01:39:42;6.07;;;3.22;;
41829;SDS011;38614;43.472;23.936;2024-02-21T01:42:29;4.43;;;2.67;;
41829;SDS011;38614;43.472;23.936;2024-02-21T01:45:17;3.97;;;2.80;;
41829;SDS011;38614;43.472;23.936;2024-02-21T01:48:05;7.63;;;3.45;;
41829;SDS011;38614;43.472;23.936;2024-02-21T01:50:54;4.93;;;3.15;;
41829;SDS011;38614;43.472;23.936;2024-02-21T01:53:45;7.47;;;3.35;;
41829;SDS011;38614;43.472;23.936;2024-02-21T01:56:33;6.10;;;3.08;;
41829;SDS011;38614;43.472;23.936;2024-02-21T01:59:21;5.78;;;2.67;;
41829;SDS011;38614;43.472;23.936;2024-02-21T02:02:10;9.60;;;3.03;;
41829;SDS011;38614;43.472;23.936;2024-02-21T02:04:57;8.55;;;3.35;;
41829;SDS011;38614;43.472;23.936;2024-02-21T02:07:46;11.35;;;2.63;;
41829;SDS011;38614;43.472;23.936;2024-02-21T02:10:33;5.05;;;2.78;;
41829;SDS011;38614;43.472;23.936;2024-02-21T02:13:23;4.68;;;3.08;;
41829;SDS011;38614;43.472;23.936;2024-02-21T02:16:10;3.85;;;3.08;;
41829;SDS011;38614;43.472;23.936;2024-02-21T02:18:58;6.22;;;2.78;;
41829;SDS011;38614;43.472;23.936;2024-02-21T02:21:46;3.30;;;2.58;;
41829;SDS011;38614;43.472;23.936;2024-02-21T02:24:41;6.53;;;2.85;;
41829;SDS011;38614;43.472;23.936;2024-02-21T02:27:28;4.63;;;2.63;;
41829;SDS011;38614;43.472;23.936;2024-02-21T02:30:16;5.78;;;2.35;;
41829;SDS011;38614;43.472;23.936;2024-02-21T02:33:04;8.57;;;3.08;;
41829;SDS011;38614;43.472;23.936;2024-02-21T02:35:52;3.40;;;2.08;;
41829;SDS011;38614;43.472;23.936;2024-02-21T02:38:40;5.53;;;2.22;;
41829;SDS011;38614;43.472;23.936;2024-02-21T02:41:28;6.90;;;3.40;;
41829;SDS011;38614;43.472;23.936;2024-02-21T02:44:15;4.40;;;2.92;;
41829;SDS011;38614;43.472;23.936;2024-02-21T02:47:03;5.07;;;2.33;;
41829;SDS011;38614;43.472;23.936;2024-02-21T02:49:51;5.82;;;2.28;;
41829;SDS011;38614;43.472;23.936;2024-02-21T02:52:39;5.07;;;2.67;;
41829;SDS011;38614;43.472;23.936;2024-02-21T02:55:27;5.55;;;3.30;;
41829;SDS011;38614;43.472;23.936;2024-02-21T02:58:15;3.28;;;1.70;;
41829;SDS011;38614;43.472;23.936;2024-02-21T03:01:03;7.35;;;2.47;;
41829;SDS011;38614;43.472;23.936;2024-02-21T03:03:51;5.30;;;2.67;;
41829;SDS011;38614;43.472;23.936;2024-02-21T03:06:39;6.28;;;2.92;;
41829;SDS011;38614;43.472;23.936;2024-02-21T03:09:27;3.08;;;2.00;;
41829;SDS011;38614;43.472;23.936;2024-02-21T03:12:15;5.53;;;3.75;;
41829;SDS011;38614;43.472;23.936;2024-02-21T03:15:11;14.73;;;5.80;;
41829;SDS011;38614;43.472;23.936;2024-02-21T03:17:59;6.53;;;3.70;;
41829;SDS011;38614;43.472;23.936;2024-02-21T03:20:47;8.80;;;3.28;;
41829;SDS011;38614;43.472;23.936;2024-02-21T03:23:35;9.38;;;3.45;;
41829;SDS011;38614;43.472;23.936;2024-02-21T03:26:23;7.10;;;2.88;;
41829;SDS011;38614;43.472;23.936;2024-02-21T03:29:11;3.92;;;2.47;;
41829;SDS011;38614;43.472;23.936;2024-02-21T03:31:59;19.17;;;8.55;;
41829;SDS011;38614;43.472;23.936;2024-02-21T03:34:53;42.50;;;14.05;;
41829;SDS011;38614;43.472;23.936;2024-02-21T03:37:40;32.13;;;10.30;;
41829;SDS011;38614;43.472;23.936;2024-02-21T03:40:28;19.00;;;8.55;;
41829;SDS011;38614;43.472;23.936;2024-02-21T03:43:16;14.52;;;6.93;;
41829;SDS011;38614;43.472;23.936;2024-02-21T03:46:05;12.35;;;6.07;;
41829;SDS011;38614;43.472;23.936;2024-02-21T03:48:53;7.95;;;4.07;;
41829;SDS011;38614;43.472;23.936;2024-02-21T03:51:41;6.20;;;2.92;;
41829;SDS011;38614;43.472;23.936;2024-02-21T03:54:29;7.53;;;3.92;;
41829;SDS011;38614;43.472;23.936;2024-02-21T03:57:17;10.38;;;3.42;;
41829;SDS011;38614;43.472;23.936;2024-02-21T04:00:08;10.18;;;4.93;;
41829;SDS011;38614;43.472;23.936;2024-02-21T04:02:58;11.32;;;5.13;;
41829;SDS011;38614;43.472;23.936;2024-02-21T04:05:49;13.85;;;4.60;;
41829;SDS011;38614;43.472;23.936;2024-02-21T04:08:38;11.80;;;5.18;;
41829;SDS011;38614;43.472;23.936;2024-02-21T04:11:28;10.05;;;3.60;;
41829;SDS011;38614;43.472;23.936;2024-02-21T04:14:16;11.65;;;3.97;;
41829;SDS011;38614;43.472;23.936;2024-02-21T04:17:04;11.50;;;3.70;;
41829;SDS011;38614;43.472;23.936;2024-02-21T04:19:53;6.63;;;3.67;;
41829;SDS011;38614;43.472;23.936;2024-02-21T04:22:49;11.23;;;4.05;;
41829;SDS011;38614;43.472;23.936;2024-02-21T04:25:37;10.38;;;3.53;;
41829;SDS011;38614;43.472;23.936;2024-02-21T04:28:25;17.33;;;10.07;;
41829;SDS011;38614;43.472;23.936;2024-02-21T04:31:13;11.13;;;6.28;;
41829;SDS011;38614;43.472;23.936;2024-02-21T04:34:02;12.90;;;6.22;;
41829;SDS011;38614;43.472;23.936;2024-02-21T04:36:50;10.43;;;6.15;;
41829;SDS011;38614;43.472;23.936;2024-02-21T04:39:38;12.90;;;6.70;;
41829;SDS011;38614;43.472;23.936;2024-02-21T04:42:25;15.10;;;8.45;;
41829;SDS011;38614;43.472;23.936;2024-02-21T04:45:16;15.52;;;8.77;;
41829;SDS011;38614;43.472;23.936;2024-02-21T04:48:04;13.23;;;7.65;;
41829;SDS011;38614;43.472;23.936;2024-02-21T04:50:52;14.38;;;8.35;;
41829;SDS011;38614;43.472;23.936;2024-02-21T04:53:40;11.82;;;5.63;;
41829;SDS011;38614;43.472;23.936;2024-02-21T04:56:28;14.18;;;5.35;;
41829;SDS011;38614;43.472;23.936;2024-02-21T04:59:17;12.98;;;7.35;;
41829;SDS011;38614;43.472;23.936;2024-02-21T05:02:04;9.40;;;5.95;;
41829;SDS011;38614;43.472;23.936;2024-02-21T05:04:53;14.02;;;6.15;;
41829;SDS011;38614;43.472;23.936;2024-02-21T05:07:41;12.40;;;6.45;;
41829;SDS011;38614;43.472;23.936;2024-02-21T05:10:29;13.73;;;7.53;;
41829;SDS011;38614;43.472;23.936;2024-02-21T05:13:16;17.25;;;7.70;;
41829;SDS011;38614;43.472;23.936;2024-02-21T05:16:08;16.17;;;8.93;;
41829;SDS011;38614;43.472;23.936;2024-02-21T05:19:01;30.10;;;12.23;;
41829;SDS011;38614;43.472;23.936;2024-02-21T05:21:51;21.27;;;11.05;;
41829;SDS011;38614;43.472;23.936;2024-02-21T05:24:42;22.95;;;10.02;;
41829;SDS011;38614;43.472;23.936;2024-02-21T05:27:30;28.63;;;13.13;;
41829;SDS011;38614;43.472;23.936;2024-02-21T05:30:17;35.63;;;12.75;;
41829;SDS011;38614;43.472;23.936;2024-02-21T05:33:05;21.92;;;11.70;;
41829;SDS011;38614;43.472;23.936;2024-02-21T05:35:53;25.15;;;12.38;;
41829;SDS011;38614;43.472;23.936;2024-02-21T05:38:41;25.83;;;9.75;;
41829;SDS011;38614;43.472;23.936;2024-02-21T05:41:29;20.35;;;10.73;;
41829;SDS011;38614;43.472;23.936;2024-02-21T05:44:17;26.92;;;11.68;;
41829;SDS011;38614;43.472;23.936;2024-02-21T05:47:05;23.88;;;10.55;;
41829;SDS011;38614;43.472;23.936;2024-02-21T05:49:57;30.48;;;10.45;;
41829;SDS011;38614;43.472;23.936;2024-02-21T05:52:45;32.53;;;11.10;;
41829;SDS011;38614;43.472;23.936;2024-02-21T05:55:32;25.58;;;10.32;;
41829;SDS011;38614;43.472;23.936;2024-02-21T05:58:20;32.90;;;11.40;;
41829;SDS011;38614;43.472;23.936;2024-02-21T06:01:10;34.95;;;15.45;;
41829;SDS011;38614;43.472;23.936;2024-02-21T06:03:58;38.33;;;18.42;;
41829;SDS011;38614;43.472;23.936;2024-02-21T06:06:46;47.30;;;17.48;;
41829;SDS011;38614;43.472;23.936;2024-02-21T06:09:34;41.63;;;15.13;;
41829;SDS011;38614;43.472;23.936;2024-02-21T06:12:22;27.17;;;12.88;;
41829;SDS011;38614;43.472;23.936;2024-02-21T06:15:09;35.50;;;15.55;;
41829;SDS011;38614;43.472;23.936;2024-02-21T06:17:57;42.08;;;16.67;;
41829;SDS011;38614;43.472;23.936;2024-02-21T06:20:45;35.03;;;14.07;;
41829;SDS011;38614;43.472;23.936;2024-02-21T06:23:33;30.48;;;14.63;;
41829;SDS011;38614;43.472;23.936;2024-02-21T06:26:35;38.75;;;18.40;;
41829;SDS011;38614;43.472;23.936;2024-02-21T06:29:22;27.65;;;15.23;;
41829;SDS011;38614;43.472;23.936;2024-02-21T06:32:10;43.35;;;18.02;;
41829;SDS011;38614;43.472;23.936;2024-02-21T06:34:58;29.50;;;16.00;;
41829;SDS011;38614;43.472;23.936;2024-02-21T06:37:46;37.55;;;19.60;;
41829;SDS011;38614;43.472;23.936;2024-02-21T06:40:38;54.30;;;22.92;;
41829;SDS011;38614;43.472;23.936;2024-02-21T06:43:27;58.53;;;26.48;;
41829;SDS011;38614;43.472;23.936;2024-02-21T06:46:27;79.07;;;32.55;;
41829;SDS011;38614;43.472;23.936;2024-02-21T06:49:21;86.10;;;33.78;;
41829;SDS011;38614;43.472;23.936;2024-02-21T06:52:09;67.65;;;32.25;;
41829;SDS011;38614;43.472;23.936;2024-02-21T06:54:56;65.40;;;27.88;;
41829;SDS011;38614;43.472;23.936;2024-02-21T06:57:44;46.67;;;22.27;;
41829;SDS011;38614;43.472;23.936;2024-02-21T07:00:32;38.40;;;19.15;;
41829;SDS011;38614;43.472;23.936;2024-02-21T07:03:19;48.58;;;18.60;;
41829;SDS011;38614;43.472;23.936;2024-02-21T07:06:07;32.10;;;15.30;;
41829;SDS011;38614;43.472;23.936;2024-02-21T07:08:55;31.27;;;9.77;;
41829;SDS011;38614;43.472;23.936;2024-02-21T07:11:42;14.77;;;9.00;;
41829;SDS011;38614;43.472;23.936;2024-02-21T07:14:33;9.80;;;5.93;;
41829;SDS011;38614;43.472;23.936;2024-02-21T07:17:21;11.60;;;4.13;;
41829;SDS011;38614;43.472;23.936;2024-02-21T07:20:08;19.40;;;5.75;;
41829;SDS011;38614;43.472;23.936;2024-02-21T07:22:56;7.80;;;3.88;;
41829;SDS011;38614;43.472;23.936;2024-02-21T07:25:44;6.35;;;3.28;;
41829;SDS011;38614;43.472;23.936;2024-02-21T07:28:32;7.30;;;3.83;;
41829;SDS011;38614;43.472;23.936;2024-02-21T07:31:20;4.20;;;2.92;;
41829;SDS011;38614;43.472;23.936;2024-02-21T07:34:08;3.55;;;2.55;;
41829;SDS011;38614;43.472;23.936;2024-02-21T07:36:56;7.93;;;3.88;;
41829;SDS011;38614;43.472;23.936;2024-02-21T07:39:43;12.48;;;4.72;;
41829;SDS011;38614;43.472;23.936;2024-02-21T07:42:31;13.48;;;4.85;;
41829;SDS011;38614;43.472;23.936;2024-02-21T07:45:19;8.52;;;4.40;;
41829;SDS011;38614;43.472;23.936;2024-02-21T07:48:09;10.02;;;4.30;;
41829;SDS011;38614;43.472;23.936;2024-02-21T07:50:57;8.70;;;4.68;;
41829;SDS011;38614;43.472;23.936;2024-02-21T07:53:44;9.98;;;4.60;;
41829;SDS011;38614;43.472;23.936;2024-02-21T07:56:32;6.40;;;3.70;;
41829;SDS011;38614;43.472;23.936;2024-02-21T07:59:20;9.15;;;5.05;;
41829;SDS011;38614;43.472;23.936;2024-02-21T08:02:09;9.25;;;3.83;;
41829;SDS011;38614;43.472;23.936;2024-02-21T08:04:57;9.55;;;2.92;;
41829;SDS011;38614;43.472;23.936;2024-02-21T08:07:45;6.57;;;4.57;;
41829;SDS011;38614;43.472;23.936;2024-02-21T08:10:33;7.88;;;3.75;;
41829;SDS011;38614;43.472;23.936;2024-02-21T08:13:21;5.47;;;4.25;;
41829;SDS011;38614;43.472;23.936;2024-02-21T08:16:09;7.68;;;3.83;;
41829;SDS011;38614;43.472;23.936;2024-02-21T08:18:57;10.73;;;5.03;;
41829;SDS011;38614;43.472;23.936;2024-02-21T08:21:47;11.13;;;4.13;;
41829;SDS011;38614;43.472;23.936;2024-02-21T08:24:35;8.00;;;4.05;;
41829;SDS011;38614;43.472;23.936;2024-02-21T08:27:22;5.10;;;3.40;;
41829;SDS011;38614;43.472;23.936;2024-02-21T08:30:11;3.83;;;2.90;;
41829;SDS011;38614;43.472;23.936;2024-02-21T08:32:59;7.55;;;4.38;;
41829;SDS011;38614;43.472;23.936;2024-02-21T08:35:47;7.13;;;3.88;;
41829;SDS011;38614;43.472;23.936;2024-02-21T08:38:35;9.75;;;4.22;;
41829;SDS011;38614;43.472;23.936;2024-02-21T08:41:23;7.30;;;4.13;;
41829;SDS011;38614;43.472;23.936;2024-02-21T08:44:28;6.28;;;3.78;;
41829;SDS011;38614;43.472;23.936;2024-02-21T08:47:16;6.25;;;4.78;;
41829;SDS011;38614;43.472;23.936;2024-02-21T08:50:03;7.50;;;4.15;;
41829;SDS011;38614;43.472;23.936;2024-02-21T08:53:05;11.47;;;4.67;;
41829;SDS011;38614;43.472;23.936;2024-02-21T08:55:53;7.97;;;4.20;;
41829;SDS011;38614;43.472;23.936;2024-02-21T08:58:40;6.32;;;3.38;;
41829;SDS011;38614;43.472;23.936;2024-02-21T09:01:32;8.68;;;4.22;;
41829;SDS011;38614;43.472;23.936;2024-02-21T09:04:23;6.53;;;3.78;;
41829;SDS011;38614;43.472;23.936;2024-02-21T09:07:11;7.47;;;3.75;;
41829;SDS011;38614;43.472;23.936;2024-02-21T09:09:59;4.20;;;2.92;;
41829;SDS011;38614;43.472;23.936;2024-02-21T09:12:47;5.25;;;3.40;;
41829;SDS011;38614;43.472;23.936;2024-02-21T09:15:35;18.15;;;4.65;;
41829;SDS011;38614;43.472;23.936;2024-02-21T09:18:22;7.22;;;3.28;;
41829;SDS011;38614;43.472;23.936;2024-02-21T09:21:10;7.43;;;4.25;;
41829;SDS011;38614;43.472;23.936;2024-02-21T09:23:58;8.10;;;3.35;;
41829;SDS011;38614;43.472;23.936;2024-02-21T09:26:47;5.13;;;3.22;;
41829;SDS011;38614;43.472;23.936;2024-02-21T09:29:34;3.92;;;3.00;;
41829;SDS011;38614;43.472;23.936;2024-02-21T09:32:23;4.20;;;2.90;;
41829;SDS011;38614;43.472;23.936;2024-02-21T09:35:11;4.78;;;2.75;;
41829;SDS011;38614;43.472;23.936;2024-02-21T09:38:01;4.68;;;2.65;;
41829;SDS011;38614;43.472;23.936;2024-02-21T09:40:53;4.88;;;2.50;;
41829;SDS011;38614;43.472;23.936;2024-02-21T09:43:46;2.33;;;1.70;;
41829;SDS011;38614;43.472;23.936;2024-02-21T09:49:41;4.50;;;2.83;;
41829;SDS011;38614;43.472;23.936;2024-02-21T09:52:30;5.47;;;3.10;;
41829;SDS011;38614;43.472;23.936;2024-02-21T09:55:18;2.75;;;2.38;;
41829;SDS011;38614;43.472;23.936;2024-02-21T09:58:06;4.38;;;2.83;;
41829;SDS011;38614;43.472;23.936;2024-02-21T10:00:55;3.42;;;3.08;;
41829;SDS011;38614;43.472;23.936;2024-02-21T10:03:45;5.93;;;2.90;;
41829;SDS011;38614;43.472;23.936;2024-02-21T10:06:33;4.07;;;2.95;;
41829;SDS011;38614;43.472;23.936;2024-02-21T10:09:25;4.93;;;2.78;;
41829;SDS011;38614;43.472;23.936;2024-02-21T10:12:18;8.77;;;4.35;;
41829;SDS011;38614;43.472;23.936;2024-02-21T10:15:06;5.65;;;3.85;;
41829;SDS011;38614;43.472;23.936;2024-02-21T10:18:00;5.63;;;3.67;;
41829;SDS011;38614;43.472;23.936;2024-02-21T10:20:48;4.25;;;2.92;;
41829;SDS011;38614;43.472;23.936;2024-02-21T10:23:51;8.57;;;3.50;;
41829;SDS011;38614;43.472;23.936;2024-02-21T10:29:26;8.75;;;4.07;;
41829;SDS011;38614;43.472;23.936;2024-02-21T10:32:14;13.70;;;5.45;;
41829;SDS011;38614;43.472;23.936;2024-02-21T10:35:03;8.13;;;4.13;;
41829;SDS011;38614;43.472;23.936;2024-02-21T10:37:54;9.63;;;2.65;;
41829;SDS011;38614;43.472;23.936;2024-02-21T10:40:43;5.43;;;3.08;;
41829;SDS011;38614;43.472;23.936;2024-02-21T10:43:33;4.63;;;2.97;;
41829;SDS011;38614;43.472;23.936;2024-02-21T10:46:24;9.82;;;4.20;;
41829;SDS011;38614;43.472;23.936;2024-02-21T10:49:22;6.75;;;3.60;;
41829;SDS011;38614;43.472;23.936;2024-02-21T10:52:22;9.30;;;4.72;;
41829;SDS011;38614;43.472;23.936;2024-02-21T10:55:26;10.20;;;4.43;;
41829;SDS011;38614;43.472;23.936;2024-02-21T10:58:17;19.15;;;4.43;;
41829;SDS011;38614;43.472;23.936;2024-02-21T11:01:05;6.97;;;3.92;;
41829;SDS011;38614;43.472;23.936;2024-02-21T11:03:55;5.60;;;3.78;;
41829;SDS011;38614;43.472;23.936;2024-02-21T11:06:43;8.77;;;4.22;;
41829;SDS011;38614;43.472;23.936;2024-02-21T11:09:32;5.18;;;4.20;;
41829;SDS011;38614;43.472;23.936;2024-02-21T11:12:21;7.70;;;4.57;;
41829;SDS011;38614;43.472;23.936;2024-02-21T11:15:09;9.55;;;3.97;;
41829;SDS011;38614;43.472;23.936;2024-02-21T11:17:58;8.70;;;4.15;;
41829;SDS011;38614;43.472;23.936;2024-02-21T11:20:49;6.85;;;4.20;;
41829;SDS011;38614;43.472;23.936;2024-02-21T11:23:38;12.10;;;3.65;;
41829;SDS011;38614;43.472;23.936;2024-02-21T11:26:30;7.95;;;4.30;;
41829;SDS011;38614;43.472;23.936;2024-02-21T11:29:27;9.13;;;4.50;;
41829;SDS011;38614;43.472;23.936;2024-02-21T11:32:19;5.80;;;3.17;;
41829;SDS011;38614;43.472;23.936;2024-02-21T11:35:08;6.18;;;3.75;;
41829;SDS011;38614;43.472;23.936;2024-02-21T11:38:07;9.95;;;3.45;;
41829;SDS011;38614;43.472;23.936;2024-02-21T11:40:55;8.73;;;4.35;;
41829;SDS011;38614;43.472;23.936;2024-02-21T11:43:43;7.40;;;4.13;;
41829;SDS011;38614;43.472;23.936;2024-02-21T11:46:31;4.43;;;3.22;;
41829;SDS011;38614;43.472;23.936;2024-02-21T11:49:20;9.40;;;3.28;;
41829;SDS011;38614;43.472;23.936;2024-02-21T11:52:08;6.55;;;2.78;;
41829;SDS011;38614;43.472;23.936;2024-02-21T11:54:56;5.97;;;2.85;;
41829;SDS011;38614;43.472;23.936;2024-02-21T11:57:52;4.35;;;2.50;;
41829;SDS011;38614;43.472;23.936;2024-02-21T12:00:40;5.95;;;2.80;;
41829;SDS011;38614;43.472;23.936;2024-02-21T12:03:28;8.07;;;2.83;;
41829;SDS011;38614;43.472;23.936;2024-02-21T12:06:17;2.92;;;2.10;;
41829;SDS011;38614;43.472;23.936;2024-02-21T12:09:09;4.00;;;2.80;;
41829;SDS011;38614;43.472;23.936;2024-02-21T12:11:58;7.97;;;3.50;;
41829;SDS011;38614;43.472;23.936;2024-02-21T12:14:46;3.70;;;2.33;;
41829;SDS011;38614;43.472;23.936;2024-02-21T12:17:34;7.30;;;2.00;;
41829;SDS011;38614;43.472;23.936;2024-02-21T12:20:22;3.72;;;2.35;;
41829;SDS011;38614;43.472;23.936;2024-02-21T12:23:10;5.70;;;1.83;;
41829;SDS011;38614;43.472;23.936;2024-02-21T12:25:59;4.15;;;2.15;;
41829;SDS011;38614;43.472;23.936;2024-02-21T12:28:47;11.57;;;3.65;;
41829;SDS011;38614;43.472;23.936;2024-02-21T12:31:35;5.25;;;2.38;;
41829;SDS011;38614;43.472;23.936;2024-02-21T12:34:25;3.67;;;2.45;;
41829;SDS011;38614;43.472;23.936;2024-02-21T12:37:30;6.13;;;3.00;;
41829;SDS011;38614;43.472;23.936;2024-02-21T12:40:17;7.00;;;2.85;;
41829;SDS011;38614;43.472;23.936;2024-02-21T12:43:05;7.82;;;2.70;;
41829;SDS011;38614;43.472;23.936;2024-02-21T12:45:53;4.45;;;2.40;;
41829;SDS011;38614;43.472;23.936;2024-02-21T12:48:41;3.55;;;1.77;;
41829;SDS011;38614;43.472;23.936;2024-02-21T12:51:29;9.43;;;2.90;;
41829;SDS011;38614;43.472;23.936;2024-02-21T12:54:17;16.80;;;3.55;;
41829;SDS011;38614;43.472;23.936;2024-02-21T12:57:05;3.67;;;2.63;;
41829;SDS011;38614;43.472;23.936;2024-02-21T12:59:54;7.45;;;3.15;;
41829;SDS011;38614;43.472;23.936;2024-02-21T13:02:42;9.75;;;3.13;;
41829;SDS011;38614;43.472;23.936;2024-02-21T13:05:31;7.05;;;2.60;;
41829;SDS011;38614;43.472;23.936;2024-02-21T13:08:22;4.82;;;2.72;;
41829;SDS011;38614;43.472;23.936;2024-02-21T13:11:10;8.48;;;3.20;;
41829;SDS011;38614;43.472;23.936;2024-02-21T13:13:58;5.50;;;3.38;;
41829;SDS011;38614;43.472;23.936;2024-02-21T13:16:46;8.38;;;3.08;;
41829;SDS011;38614;43.472;23.936;2024-02-21T13:19:34;5.75;;;3.35;;
41829;SDS011;38614;43.472;23.936;2024-02-21T13:22:24;10.45;;;3.95;;
41829;SDS011;38614;43.472;23.936;2024-02-21T13:25:14;7.72;;;4.20;;
41829;SDS011;38614;43.472;23.936;2024-02-21T13:28:05;10.95;;;4.22;;
41829;SDS011;38614;43.472;23.936;2024-02-21T13:30:54;8.63;;;3.97;;
41829;SDS011;38614;43.472;23.936;2024-02-21T13:33:42;9.18;;;5.10;;
41829;SDS011;38614;43.472;23.936;2024-02-21T13:36:31;10.55;;;4.72;;
41829;SDS011;38614;43.472;23.936;2024-02-21T13:39:19;7.85;;;5.60;;
41829;SDS011;38614;43.472;23.936;2024-02-21T13:42:07;11.75;;;5.38;;
41829;SDS011;38614;43.472;23.936;2024-02-21T13:44:55;10.52;;;5.45;;
41829;SDS011;38614;43.472;23.936;2024-02-21T13:47:45;8.63;;;4.95;;
41829;SDS011;38614;43.472;23.936;2024-02-21T13:50:33;8.10;;;3.83;;
41829;SDS011;38614;43.472;23.936;2024-02-21T13:53:30;5.85;;;3.22;;
41829;SDS011;38614;43.472;23.936;2024-02-21T13:56:17;5.20;;;2.78;;
41829;SDS011;38614;43.472;23.936;2024-02-21T13:59:06;11.70;;;2.70;;
41829;SDS011;38614;43.472;23.936;2024-02-21T14:01:54;10.60;;;3.08;;
41829;SDS011;38614;43.472;23.936;2024-02-21T14:04:50;6.03;;;2.58;;
41829;SDS011;38614;43.472;23.936;2024-02-21T14:07:43;3.35;;;1.77;;
41829;SDS011;38614;43.472;23.936;2024-02-21T14:10:35;6.90;;;2.03;;
41829;SDS011;38614;43.472;23.936;2024-02-21T14:13:35;5.93;;;1.52;;
41829;SDS011;38614;43.472;23.936;2024-02-21T14:16:26;2.88;;;1.10;;
41829;SDS011;38614;43.472;23.936;2024-02-21T14:19:14;2.45;;;1.00;;
41829;SDS011;38614;43.472;23.936;2024-02-21T14:22:02;3.17;;;0.82;;
41829;SDS011;38614;43.472;23.936;2024-02-21T14:24:50;4.28;;;0.98;;
41829;SDS011;38614;43.472;23.936;2024-02-21T14:27:38;3.83;;;1.27;;
41829;SDS011;38614;43.472;23.936;2024-02-21T14:30:26;4.78;;;0.98;;
41829;SDS011;38614;43.472;23.936;2024-02-21T14:33:14;1.58;;;1.30;;
41829;SDS011;38614;43.472;23.936;2024-02-21T14:36:01;3.22;;;1.17;;
41829;SDS011;38614;43.472;23.936;2024-02-21T14:38:53;3.42;;;1.08;;
41829;SDS011;38614;43.472;23.936;2024-02-21T14:41:40;2.63;;;1.20;;
41829;SDS011;38614;43.472;23.936;2024-02-21T14:44:28;3.78;;;1.92;;
41829;SDS011;38614;43.472;23.936;2024-02-21T14:47:16;1.42;;;1.20;;
41829;SDS011;38614;43.472;23.936;2024-02-21T14:50:04;11.52;;;2.13;;
41829;SDS011;38614;43.472;23.936;2024-02-21T14:52:52;2.88;;;1.15;;
41829;SDS011;38614;43.472;23.936;2024-02-21T14:55:43;5.15;;;1.92;;
41829;SDS011;38614;43.472;23.936;2024-02-21T14:58:30;10.25;;;1.73;;
41829;SDS011;38614;43.472;23.936;2024-02-21T15:01:19;5.80;;;1.90;;
41829;SDS011;38614;43.472;23.936;2024-02-21T15:04:06;6.82;;;2.38;;
41829;SDS011;38614;43.472;23.936;2024-02-21T15:06:57;17.08;;;2.88;;
41829;SDS011;38614;43.472;23.936;2024-02-21T15:09:44;2.97;;;2.10;;
41829;SDS011;38614;43.472;23.936;2024-02-21T15:12:35;9.57;;;3.00;;
41829;SDS011;38614;43.472;23.936;2024-02-21T15:15:25;8.18;;;2.70;;
41829;SDS011;38614;43.472;23.936;2024-02-21T15:18:16;5.97;;;2.08;;
41829;SDS011;38614;43.472;23.936;2024-02-21T15:21:04;3.30;;;2.10;;
41829;SDS011;38614;43.472;23.936;2024-02-21T15:23:52;7.13;;;3.00;;
41829;SDS011;38614;43.472;23.936;2024-02-21T15:26:40;2.05;;;1.88;;
41829;SDS011;38614;43.472;23.936;2024-02-21T15:29:31;5.20;;;1.98;;
41829;SDS011;38614;43.472;23.936;2024-02-21T15:32:19;5.70;;;2.53;;
41829;SDS011;38614;43.472;23.936;2024-02-21T15:35:08;10.20;;;3.60;;
41829;SDS011;38614;43.472;23.936;2024-02-21T15:37:57;3.35;;;2.10;;
41829;SDS011;38614;43.472;23.936;2024-02-21T15:40:45;5.57;;;2.33;;
41829;SDS011;38614;43.472;23.936;2024-02-21T15:43:33;2.22;;;1.48;;
41829;SDS011;38614;43.472;23.936;2024-02-21T15:46:22;5.60;;;1.35;;
41829;SDS011;38614;43.472;23.936;2024-02-21T15:49:10;3.33;;;1.38;;
41829;SDS011;38614;43.472;23.936;2024-02-21T15:51:59;4.10;;;1.25;;
41829;SDS011;38614;43.472;23.936;2024-02-21T15:54:47;4.53;;;1.98;;
41829;SDS011;38614;43.472;23.936;2024-02-21T15:57:35;3.85;;;2.08;;
41829;SDS011;38614;43.472;23.936;2024-02-21T16:00:23;2.85;;;1.85;;
41829;SDS011;38614;43.472;23.936;2024-02-21T16:03:11;8.80;;;2.78;;
41829;SDS011;38614;43.472;23.936;2024-02-21T16:06:00;5.32;;;2.78;;
41829;SDS011;38614;43.472;23.936;2024-02-21T16:08:49;9.77;;;2.90;;
41829;SDS011;38614;43.472;23.936;2024-02-21T16:11:37;6.55;;;3.08;;
41829;SDS011;38614;43.472;23.936;2024-02-21T16:14:26;6.32;;;0.77;;
41829;SDS011;38614;43.472;23.936;2024-02-21T16:17:15;1.27;;;0.60;;
41829;SDS011;38614;43.472;23.936;2024-02-21T16:20:03;0.88;;;0.63;;
41829;SDS011;38614;43.472;23.936;2024-02-21T16:22:52;1.85;;;0.80;;
41829;SDS011;38614;43.472;23.936;2024-02-21T16:25:40;2.92;;;0.90;;
41829;SDS011;38614;43.472;23.936;2024-02-21T16:28:28;1.30;;;0.82;;
41829;SDS011;38614;43.472;23.936;2024-02-21T16:31:16;7.88;;;0.88;;
41829;SDS011;38614;43.472;23.936;2024-02-21T16:34:05;1.55;;;0.63;;
41829;SDS011;38614;43.472;23.936;2024-02-21T16:36:55;1.27;;;0.55;;
41829;SDS011;38614;43.472;23.936;2024-02-21T16:39:44;2.58;;;0.95;;
41829;SDS011;38614;43.472;23.936;2024-02-21T16:42:28;2.03;;;1.55;;